Time;durP1;ratioP1;P1;durP2;ratioP2;P2;SDS_P1;SDS_P2;PMS_P1;PMS_P2;Temp;Humidity;BMP_temperature;BMP_pressure;BME280_temperature;BME280_humidity;BME280_pressure;Samples;Min_cycle;Max_cycle;Signal;HPM_P1;HPM_P2
2022/12/26 00:01:36;;;;;;;126.72;55.13;;;;;;;9.40;100.00;101443.84;5036150;28;20141;-85
2022/12/26 00:04:01;;;;;;;135.27;57.17;;;;;;;9.26;100.00;101443.22;5036110;28;20116;-84
2022/12/26 00:06:29;;;;;;;131.00;57.28;;;;;;;9.19;100.00;101452.63;5035390;28;20065;-81
2022/12/26 00:08:55;;;;;;;145.25;61.00;;;;;;;9.09;100.00;101440.31;5035137;28;20442;-82
2022/12/26 00:11:25;;;;;;;149.30;61.05;;;;;;;9.12;100.00;101446.19;5035349;28;20124;-82
2022/12/26 00:14:00;;;;;;;137.65;60.47;;;;;;;9.14;100.00;101446.06;5034612;28;20053;-83
2022/12/26 00:16:26;;;;;;;144.20;62.17;;;;;;;9.14;100.00;101444.25;5045246;28;20040;-82
2022/12/26 00:18:54;;;;;;;149.02;63.75;;;;;;;9.13;100.00;101441.75;5050653;28;20026;-84
2022/12/26 00:21:22;;;;;;;142.55;60.08;;;;;;;9.13;100.00;101450.50;5045152;28;20049;-81
2022/12/26 00:23:48;;;;;;;142.57;60.58;;;;;;;9.10;100.00;101445.50;5043246;28;20048;-80
2022/12/26 00:26:20;;;;;;;141.95;59.95;;;;;;;9.06;100.00;101438.78;5038901;28;20404;-81
2022/12/26 00:28:46;;;;;;;144.30;61.63;;;;;;;9.06;100.00;101443.22;5040654;28;20494;-82
2022/12/26 00:31:15;;;;;;;142.27;59.83;;;;;;;9.03;100.00;101448.78;5042154;28;20030;-81
2022/12/26 00:33:41;;;;;;;144.77;60.85;;;;;;;9.03;100.00;101438.19;5043300;28;20033;-80
2022/12/26 00:36:09;;;;;;;135.18;57.47;;;;;;;9.10;100.00;101439.34;5043856;28;20093;-82
2022/12/26 00:38:36;;;;;;;137.57;58.78;;;;;;;9.07;100.00;101436.97;5042290;28;20037;-81
2022/12/26 00:41:03;;;;;;;141.65;58.17;;;;;;;9.17;100.00;101435.22;5043383;28;20038;-82
2022/12/26 00:43:29;;;;;;;132.38;55.88;;;;;;;9.14;100.00;101433.69;5044471;28;20044;-81
2022/12/26 00:45:56;;;;;;;138.82;57.45;;;;;;;9.02;100.00;101436.50;5039559;28;20026;-82
2022/12/26 00:48:23;;;;;;;131.02;53.55;;;;;;;8.96;100.00;101431.75;5039928;28;20037;-81
2022/12/26 00:50:48;;;;;;;135.10;56.50;;;;;;;8.96;100.00;101431.75;5040487;28;20507;-81
2022/12/26 00:53:13;;;;;;;133.95;57.30;;;;;;;8.91;100.00;101428.66;5038011;28;20049;-82
2022/12/26 00:55:39;;;;;;;141.75;58.08;;;;;;;8.87;100.00;101428.09;5037034;28;20515;-82
2022/12/26 00:58:05;;;;;;;137.68;58.30;;;;;;;8.84;100.00;101425.69;5036599;28;20105;-83
2022/12/26 01:00:34;;;;;;;136.13;56.90;;;;;;;8.94;100.00;101429.25;5037069;28;20073;-82
2022/12/26 01:03:00;;;;;;;136.10;55.38;;;;;;;9.01;100.00;101435.69;5036571;28;20033;-84
2022/12/26 01:05:25;;;;;;;124.10;53.15;;;;;;;9.21;100.00;101428.72;5036103;28;20040;-83
2022/12/26 01:07:51;;;;;;;121.22;52.53;;;;;;;9.10;100.00;101439.34;5034548;28;20499;-84
2022/12/26 01:10:19;;;;;;;117.65;51.78;;;;;;;9.00;100.00;101438.47;5034355;28;20037;-83
2022/12/26 01:12:44;;;;;;;112.68;51.03;;;;;;;9.02;100.00;101441.81;5034035;28;20040;-82
2022/12/26 01:15:10;;;;;;;120.20;51.80;;;;;;;9.03;100.00;101438.19;5033855;28;20465;-82
2022/12/26 01:17:36;;;;;;;127.10;52.58;;;;;;;9.17;100.00;101441.34;5034401;28;20026;-82
2022/12/26 01:20:03;;;;;;;115.72;51.72;;;;;;;9.25;100.00;101438.88;5033317;28;20040;-82
2022/12/26 01:22:28;;;;;;;115.10;50.20;;;;;;;9.44;100.00;101435.50;5034077;28;20041;-80
2022/12/26 01:24:55;;;;;;;108.60;49.40;;;;;;;9.57;100.00;101433.47;5034097;28;20046;-82
2022/12/26 01:27:20;;;;;;;110.25;50.35;;;;;;;9.49;100.00;101440.38;5015449;28;20468;-80
2022/12/26 01:29:46;;;;;;;116.97;50.05;;;;;;;9.32;100.00;101441.84;5033719;28;20045;-79
2022/12/26 01:32:11;;;;;;;117.88;50.70;;;;;;;9.31;100.00;101437.53;5033299;28;20045;-81
2022/12/26 01:34:37;;;;;;;109.88;47.95;;;;;;;9.21;100.00;101436.66;5033390;28;20112;-80
2022/12/26 01:37:02;;;;;;;108.25;48.63;;;;;;;9.29;100.00;101437.66;5032619;28;20391;-81
2022/12/26 01:39:28;;;;;;;116.22;48.05;;;;;;;9.33;100.00;101446.16;5032811;28;20048;-83
2022/12/26 01:41:54;;;;;;;107.63;48.78;;;;;;;9.52;100.00;101446.25;5030293;28;20111;-80
2022/12/26 01:44:59;;;;;;;113.53;47.72;;;;;;;9.40;100.00;101436.75;5027994;28;20029;-80
2022/12/26 01:47:33;;;;;;;105.20;46.80;;;;;;;9.58;100.00;101445.72;5033507;28;20117;-82
2022/12/26 01:49:59;;;;;;;103.78;46.90;;;;;;;9.49;100.00;101446.53;5018193;28;20036;-83
2022/12/26 01:52:30;;;;;;;99.05;46.53;;;;;;;9.62;100.00;101436.53;5016313;28;20038;-84
2022/12/26 01:54:56;;;;;;;113.10;48.38;;;;;;;9.31;100.00;101437.53;5013575;28;20038;-82
2022/12/26 01:57:39;;;;;;;109.70;50.17;;;;;;;9.13;100.00;101436.44;5018466;28;20036;-83
2022/12/26 02:00:05;;;;;;;;;;;;;;;9.24;100.00;101444.31;5025792;28;20063;-80
2022/12/26 02:05:32;;;;;;;112.95;48.70;;;;;;;9.17;100.00;101441.34;5020302;28;20045;-83
2022/12/26 02:08:00;;;;;;;101.75;46.25;;;;;;;9.21;100.00;101441.94;5013519;28;20045;-81
2022/12/26 02:10:27;;;;;;;98.35;44.47;;;;;;;9.11;100.00;101444.53;5012976;28;20087;-82
2022/12/26 02:12:53;;;;;;;102.72;45.92;;;;;;;9.08;100.00;101443.94;5020156;28;20092;-80
2022/12/26 02:15:19;;;;;;;99.88;45.10;;;;;;;9.05;100.00;101441.56;5006078;28;20086;-79
2022/12/26 02:17:45;;;;;;;96.80;44.92;;;;;;;9.03;100.00;101443.47;5025280;28;20029;-80
2022/12/26 02:20:24;;;;;;;96.57;44.55;;;;;;;9.01;100.00;101438.34;5023189;28;20041;-80
2022/12/26 02:23:27;;;;;;;93.07;44.85;;;;;;;9.07;100.00;101436.97;5016884;28;20088;-79
2022/12/26 02:26:12;;;;;;;89.22;43.35;;;;;;;9.09;100.00;101437.66;5016413;28;20068;-81
2022/12/26 02:28:44;;;;;;;90.20;43.63;;;;;;;9.21;100.00;101432.16;5016190;28;20078;-80
2022/12/26 02:31:43;;;;;;;96.05;45.20;;;;;;;9.12;100.00;101432.97;4998663;28;20041;-81
2022/12/26 02:34:39;;;;;;;92.57;43.70;;;;;;;9.16;100.00;101429.09;5016174;28;20461;-81
2022/12/26 02:37:04;;;;;;;93.72;44.70;;;;;;;9.37;100.00;101434.38;5016367;28;20444;-81
2022/12/26 02:39:51;;;;;;;91.22;43.53;;;;;;;9.29;100.00;101435.00;5015868;28;20046;-82
2022/12/26 02:42:34;;;;;;;89.80;41.15;;;;;;;9.28;100.00;101427.19;5015934;28;20057;-81
2022/12/26 02:48:45;;;;;;;89.18;42.25;;;;;;;9.43;100.00;101432.97;5021219;28;20034;-80
2022/12/26 03:15:10;;;;;;;83.65;39.72;;;;;;;9.65;100.00;101399.22;5016908;28;20029;-80
2022/12/26 03:17:45;;;;;;;87.35;39.30;;;;;;;9.56;100.00;101405.34;5016583;28;20439;-83
2022/12/26 03:20:18;;;;;;;82.82;39.53;;;;;;;9.48;100.00;101406.97;5016414;28;20038;-80
2022/12/26 03:22:55;;;;;;;78.22;40.00;;;;;;;9.46;100.00;101404.47;5016511;28;20096;-81
2022/12/26 03:28:29;;;;;;;81.15;39.00;;;;;;;9.28;100.00;101395.44;5016290;28;20104;-80
2022/12/26 03:30:57;;;;;;;79.35;39.17;;;;;;;9.30;100.00;101393.53;5014927;28;20036;-82
2022/12/26 03:36:35;;;;;;;74.55;37.25;;;;;;;9.59;100.00;101394.47;5015401;28;20065;-83
2022/12/26 03:39:09;;;;;;;77.78;38.75;;;;;;;9.41;100.00;101396.09;5015448;28;20065;-83
2022/12/26 04:20:22;;;;;;;77.43;37.25;;;;;;;9.38;100.00;101391.03;5015177;28;20491;-80
2022/12/26 04:45:43;;;;;;;75.97;38.55;;;;;;;9.28;100.00;101392.81;5015563;28;20493;-82
2022/12/26 04:50:53;;;;;;;72.65;36.95;;;;;;;9.11;100.00;101373.13;5033454;28;20044;-81
2022/12/26 04:53:19;;;;;;;82.43;39.88;;;;;;;9.13;100.00;101381.75;5016564;28;20041;-80
2022/12/26 04:55:45;;;;;;;81.57;38.50;;;;;;;9.14;100.00;101383.44;4999492;28;20064;-82
2022/12/26 04:58:11;;;;;;;86.18;41.58;;;;;;;9.03;100.00;101390.59;5033661;28;20025;-79
2022/12/26 05:00:36;;;;;;;88.78;40.90;;;;;;;9.11;100.00;101404.03;5033767;28;20488;-84
2022/12/26 05:11:24;;;;;;;87.93;43.55;;;;;;;8.86;100.00;101405.25;5034016;28;20086;-83
2022/12/26 05:13:54;;;;;;;86.03;42.22;;;;;;;8.76;100.00;101402.56;5033826;28;20035;-82
2022/12/26 05:30:08;;;;;;;84.90;41.20;;;;;;;9.13;100.00;101423.22;5033607;28;20040;-79
2022/12/26 05:35:18;;;;;;;83.15;39.85;;;;;;;8.98;100.00;101424.53;5018441;28;20045;-83
2022/12/26 05:37:46;;;;;;;94.68;42.55;;;;;;;8.83;100.00;101424.84;4999797;28;20480;-81
2022/12/26 05:40:11;;;;;;;83.47;41.65;;;;;;;9.02;100.00;101425.94;5033152;28;20107;-82
2022/12/26 05:42:37;;;;;;;88.78;42.25;;;;;;;9.22;100.00;101433.00;5034082;28;20037;-80
2022/12/26 05:45:02;;;;;;;81.85;41.03;;;;;;;9.14;100.00;101432.84;5033774;28;20063;-85
2022/12/26 05:47:28;;;;;;;86.50;40.75;;;;;;;9.00;100.00;101434.00;5037152;28;20041;-83
2022/12/26 05:49:53;;;;;;;90.60;41.83;;;;;;;9.04;100.00;101435.44;5037367;28;20025;-82
2022/12/26 05:52:19;;;;;;;83.28;38.97;;;;;;;9.22;100.00;101427.72;5036974;28;20049;-79
2022/12/26 05:54:44;;;;;;;83.07;39.13;;;;;;;9.38;100.00;101428.06;5036508;28;20044;-82
2022/12/26 05:57:10;;;;;;;83.95;40.63;;;;;;;9.25;100.00;101427.47;5036939;28;20033;-80
2022/12/26 05:59:35;;;;;;;91.13;43.38;;;;;;;8.97;100.00;101428.16;5036689;28;20116;-82
2022/12/26 06:02:01;;;;;;;91.53;41.85;;;;;;;9.10;100.00;101431.41;5036783;28;20022;-81
2022/12/26 06:04:28;;;;;;;101.95;45.58;;;;;;;9.04;100.00;101429.31;5036279;28;20072;-80
2022/12/26 06:06:55;;;;;;;99.70;43.28;;;;;;;8.83;100.00;101432.78;5037088;28;20125;-81
2022/12/26 06:09:23;;;;;;;86.35;41.85;;;;;;;8.98;100.00;101427.19;5036931;28;20095;-83
2022/12/26 06:11:52;;;;;;;80.57;39.92;;;;;;;8.79;100.00;101425.22;5036590;28;20037;-81
2022/12/26 06:14:17;;;;;;;86.30;40.83;;;;;;;8.92;100.00;101425.03;5036758;28;20029;-78
2022/12/26 06:16:42;;;;;;;83.55;40.90;;;;;;;8.84;100.00;101425.69;5036727;28;20186;-81
2022/12/26 06:19:08;;;;;;;87.63;40.65;;;;;;;8.66;100.00;101430.72;5036657;28;20040;-81
2022/12/26 06:21:34;;;;;;;88.68;40.30;;;;;;;8.54;100.00;101428.25;5036454;28;20037;-81
2022/12/26 06:24:00;;;;;;;81.10;39.35;;;;;;;8.60;100.00;101425.94;5036619;28;20150;-82
2022/12/26 06:26:26;;;;;;;79.13;39.13;;;;;;;8.66;100.00;101429.88;5036490;28;20098;-80
2022/12/26 06:28:51;;;;;;;81.43;38.55;;;;;;;8.81;100.00;101429.44;5036598;28;20112;-85
2022/12/26 06:31:19;;;;;;;75.72;36.83;;;;;;;8.74;100.00;101438.84;5037228;28;20121;-83
2022/12/26 06:33:50;;;;;;;78.18;37.28;;;;;;;8.58;100.00;101433.16;5040396;28;20025;-83
2022/12/26 06:36:18;;;;;;;76.22;36.83;;;;;;;8.63;100.00;101430.13;5019815;28;20053;-85
2022/12/26 06:38:44;;;;;;;80.13;39.47;;;;;;;8.61;100.00;101437.34;5036769;28;20116;-84
2022/12/26 06:41:12;;;;;;;73.47;37.95;;;;;;;8.54;100.00;101439.66;5018497;28;20061;-84
2022/12/26 06:43:38;;;;;;;75.72;37.78;;;;;;;8.46;100.00;101447.38;5036132;28;20033;-85
2022/12/26 06:46:11;;;;;;;68.25;36.10;;;;;;;8.35;100.00;101441.31;5036794;28;20388;-84
2022/12/26 06:48:38;;;;;;;67.38;34.30;;;;;;;8.43;100.00;101438.84;5036339;28;20334;-83
2022/12/26 06:51:10;;;;;;;64.28;35.45;;;;;;;8.45;100.00;101432.47;5036243;28;20049;-82
2022/12/26 06:53:35;;;;;;;66.82;35.47;;;;;;;8.57;100.00;101441.22;5019255;28;20037;-83
2022/12/26 06:56:13;;;;;;;63.30;32.90;;;;;;;8.52;100.00;101438.09;5037154;28;20044;-80
2022/12/26 06:58:39;;;;;;;69.30;35.33;;;;;;;8.47;100.00;101440.28;5018485;28;20090;-84
2022/12/26 07:01:14;;;;;;;65.32;34.70;;;;;;;8.33;100.00;101433.50;5036110;28;20132;-82
2022/12/26 07:03:40;;;;;;;65.38;35.25;;;;;;;8.44;100.00;101444.03;5018609;28;20217;-82
2022/12/26 07:06:11;;;;;;;68.13;34.33;;;;;;;8.53;100.00;101443.25;5036596;28;20037;-81
2022/12/26 07:08:37;;;;;;;61.90;33.92;;;;;;;8.39;100.00;101438.25;5036618;28;20034;-82
2022/12/26 07:11:03;;;;;;;62.55;33.60;;;;;;;8.52;100.00;101444.22;5039991;28;20404;-82
2022/12/26 07:13:29;;;;;;;58.33;32.00;;;;;;;8.42;100.00;101442.47;5036701;28;20113;-82
2022/12/26 07:15:58;;;;;;;66.15;34.15;;;;;;;8.42;100.00;101435.38;5037297;28;20048;-84
2022/12/26 07:18:24;;;;;;;65.50;35.28;;;;;;;8.47;100.00;101432.38;5036554;28;20033;-82
2022/12/26 07:20:49;;;;;;;60.90;34.58;;;;;;;8.52;100.00;101433.66;5036969;28;20463;-82
2022/12/26 07:23:14;;;;;;;59.90;34.13;;;;;;;8.38;100.00;101441.88;5019171;28;20049;-82
2022/12/26 07:25:40;;;;;;;66.72;33.28;;;;;;;8.48;100.00;101432.25;5038070;28;20113;-81
2022/12/26 07:28:05;;;;;;;67.53;34.90;;;;;;;8.46;100.00;101434.16;5038778;28;20072;-83
2022/12/26 07:30:32;;;;;;;77.07;37.88;;;;;;;8.38;100.00;101438.41;5036722;28;20029;-83
2022/12/26 07:32:57;;;;;;;73.70;37.55;;;;;;;8.32;100.00;101431.81;5018770;28;20030;-81
2022/12/26 07:35:23;;;;;;;86.07;39.45;;;;;;;8.45;100.00;101435.13;5035681;28;20029;-80
2022/12/26 07:37:48;;;;;;;76.68;38.17;;;;;;;8.52;100.00;101431.00;5035956;28;20072;-82
2022/12/26 07:40:14;;;;;;;81.35;38.55;;;;;;;8.53;100.00;101440.63;5037736;28;20042;-83
2022/12/26 07:42:40;;;;;;;92.35;39.15;;;;;;;8.47;100.00;101440.28;5037006;28;20099;-82
2022/12/26 07:45:06;;;;;;;77.38;37.92;;;;;;;8.37;100.00;101442.00;5037681;28;20037;-83
2022/12/26 07:47:37;;;;;;;81.97;38.50;;;;;;;8.31;100.00;101430.16;5038119;28;20476;-87
2022/12/26 07:50:27;;;;;;;84.40;40.80;;;;;;;8.45;100.00;101435.13;5024541;28;20483;-86
2022/12/26 07:53:00;;;;;;;79.85;37.38;;;;;;;8.54;100.00;101452.88;5039093;28;20043;-83
2022/12/26 07:55:25;;;;;;;75.90;38.45;;;;;;;8.45;100.00;101440.41;5042240;28;20057;-81
2022/12/26 07:57:51;;;;;;;81.00;38.42;;;;;;;8.60;100.00;101441.78;5041715;28;20029;-83
2022/12/26 08:00:18;;;;;;;77.15;40.05;;;;;;;8.58;100.00;101448.19;5005994;28;20038;-80
2022/12/26 08:02:47;;;;;;;89.18;42.55;;;;;;;8.57;100.00;101449.13;5026298;28;20543;-85
2022/12/26 08:05:13;;;;;;;82.63;40.90;;;;;;;8.55;100.00;101443.16;5042689;28;20032;-82
2022/12/26 08:07:38;;;;;;;81.95;39.95;;;;;;;8.68;100.00;101451.75;5038635;28;20427;-83
2022/12/26 08:10:04;;;;;;;75.80;39.08;;;;;;;8.81;100.00;101460.31;5038496;28;20025;-85
2022/12/26 08:12:31;;;;;;;74.88;39.42;;;;;;;9.00;100.00;101464.91;5040954;28;20061;-82
2022/12/26 08:14:57;;;;;;;76.30;37.53;;;;;;;9.05;100.00;101457.44;5041272;28;20111;-81
2022/12/26 08:17:24;;;;;;;68.88;34.80;;;;;;;9.26;100.00;101471.47;5042964;28;20072;-81
2022/12/26 08:19:50;;;;;;;69.68;35.40;;;;;;;9.34;100.00;101469.03;5043571;28;20033;-82
2022/12/26 08:22:18;;;;;;;68.50;36.10;;;;;;;9.12;100.00;101474.44;5006889;28;20477;-84
2022/12/26 08:24:45;;;;;;;76.60;38.30;;;;;;;9.25;100.00;101472.41;5036788;28;20077;-83
2022/12/26 08:27:10;;;;;;;65.20;35.50;;;;;;;9.45;100.00;101471.56;5035062;28;20068;-82
2022/12/26 08:29:38;;;;;;;65.88;35.67;;;;;;;9.13;100.00;101470.81;5034741;28;20040;-84
2022/12/26 08:32:04;;;;;;;85.20;42.90;;;;;;;8.92;100.00;101467.34;5018577;28;20068;-83
2022/12/26 08:34:34;;;;;;;75.22;40.70;;;;;;;8.88;100.00;101465.94;5035394;28;20071;-80
2022/12/26 08:36:59;;;;;;;81.30;39.40;;;;;;;9.14;100.00;101462.78;5039940;28;20034;-82
2022/12/26 08:39:25;;;;;;;73.95;38.42;;;;;;;9.31;100.00;101471.94;5034026;28;20052;-82
2022/12/26 08:41:50;;;;;;;83.85;38.30;;;;;;;9.22;100.00;101478.81;5030084;28;20050;-83
2022/12/26 08:44:16;;;;;;;75.53;36.38;;;;;;;9.39;100.00;101487.97;5025052;28;20026;-83
2022/12/26 08:46:43;;;;;;;85.13;40.83;;;;;;;9.35;100.00;101486.53;5027471;28;20031;-80
2022/12/26 08:49:08;;;;;;;83.97;40.10;;;;;;;9.43;100.00;101486.75;5043289;28;20526;-80
2022/12/26 08:51:34;;;;;;;86.70;41.30;;;;;;;9.28;100.00;101490.69;5030958;28;20097;-79
2022/12/26 08:54:00;;;;;;;90.22;43.88;;;;;;;9.23;100.00;101477.88;5031046;28;20101;-79
2022/12/26 08:56:26;;;;;;;87.18;43.40;;;;;;;9.28;100.00;101482.75;5034787;28;20041;-81
2022/12/26 08:58:52;;;;;;;89.68;42.58;;;;;;;9.54;100.00;101485.84;5034931;28;20041;-81
2022/12/26 09:01:23;;;;;;;86.03;43.30;;;;;;;9.57;100.00;101490.84;5013562;28;20038;-80
2022/12/26 09:03:53;;;;;;;93.38;45.80;;;;;;;9.65;100.00;101486.56;5013585;28;20038;-83
2022/12/26 09:06:19;;;;;;;90.97;43.67;;;;;;;9.55;100.00;101488.31;5013446;28;20061;-82
2022/12/26 09:08:45;;;;;;;90.15;44.00;;;;;;;9.56;100.00;101484.72;5030282;28;20026;-82
2022/12/26 09:11:13;;;;;;;96.28;44.60;;;;;;;9.55;100.00;101498.91;5035910;28;20033;-82
2022/12/26 09:13:40;;;;;;;89.28;44.40;;;;;;;9.67;100.00;101495.22;5047976;28;20043;-82
2022/12/26 09:16:11;;;;;;;90.93;43.85;;;;;;;9.78;100.00;101495.13;5039017;28;20043;-82
2022/12/26 09:18:37;;;;;;;95.55;45.38;;;;;;;10.10;100.00;101499.44;5037553;28;20017;-81
2022/12/26 09:21:05;;;;;;;96.63;44.22;;;;;;;10.06;100.00;101504.16;5036426;28;20076;-81
2022/12/26 09:23:34;;;;;;;83.75;42.97;;;;;;;10.11;100.00;101499.28;5041701;28;20037;-83
2022/12/26 09:26:08;;;;;;;92.65;44.22;;;;;;;10.12;100.00;101498.31;5031881;28;20033;-83
2022/12/26 09:28:34;;;;;;;90.00;42.83;;;;;;;10.12;100.00;101518.66;5028408;28;20045;-82
2022/12/26 09:31:06;;;;;;;92.15;43.90;;;;;;;10.18;100.00;101513.69;5051727;28;20108;-81
2022/12/26 09:33:35;;;;;;;92.43;42.28;;;;;;;10.15;100.00;101503.38;5024351;28;20101;-82
2022/12/26 09:36:05;;;;;;;90.25;44.13;;;;;;;10.16;100.00;101509.50;5037984;28;20052;-82
2022/12/26 09:38:31;;;;;;;91.55;43.33;;;;;;;10.20;100.00;101509.13;5046536;28;20403;-80
2022/12/26 09:41:17;;;;;;;91.50;44.13;;;;;;;10.23;100.00;101500.03;5052107;28;20115;-81
2022/12/26 09:44:20;;;;;;;94.18;45.13;;;;;;;10.28;100.00;101503.09;5047865;28;20048;-81
2022/12/26 09:47:07;;;;;;;89.82;45.08;;;;;;;10.35;100.00;101501.59;5050035;28;20120;-80
2022/12/26 09:49:35;;;;;;;95.10;46.30;;;;;;;10.36;100.00;101508.59;5051673;28;20071;-83
2022/12/26 09:52:10;;;;;;;88.60;44.47;;;;;;;10.49;100.00;101509.16;5053458;28;20041;-83
2022/12/26 09:54:40;;;;;;;87.80;43.90;;;;;;;10.58;100.00;101489.78;5056822;28;20037;-88
2022/12/26 09:57:13;;;;;;;83.00;42.30;;;;;;;10.66;100.00;101497.88;5039398;28;20020;-81
2022/12/26 09:59:49;;;;;;;93.28;44.97;;;;;;;10.67;100.00;101488.94;5055592;28;20025;-83
2022/12/26 10:02:20;;;;;;;93.85;44.60;;;;;;;10.72;100.00;101491.19;5054388;28;20625;-85
2022/12/26 10:04:46;;;;;;;87.07;42.35;;;;;;;10.79;100.00;101487.84;5041262;28;20047;-83
2022/12/26 10:07:50;;;;;;;87.15;44.83;;;;;;;10.95;100.00;101481.13;5057776;28;20009;-84
2022/12/26 10:10:52;;;;;;;86.93;42.97;;;;;;;11.01;100.00;101477.91;5033426;28;20076;-85
2022/12/26 10:13:52;;;;;;;84.50;42.00;;;;;;;10.89;100.00;101472.75;5008597;28;20050;-87
2022/12/26 10:16:34;;;;;;;86.35;40.95;;;;;;;10.97;100.00;101481.84;4929163;29;20047;-84
2022/12/26 10:19:09;;;;;;;86.35;41.28;;;;;;;11.09;100.00;101475.38;4947653;29;20049;-85
2022/12/26 10:22:24;;;;;;;77.20;41.33;;;;;;;11.03;100.00;101478.59;4931039;29;20051;-87
2022/12/26 10:24:51;;;;;;;82.47;42.35;;;;;;;11.07;100.00;101470.19;4941670;29;20051;-86
2022/12/26 10:27:19;;;;;;;82.60;41.03;;;;;;;11.18;100.00;101469.22;4941769;29;20047;-83
2022/12/26 10:30:00;;;;;;;79.25;41.88;;;;;;;11.33;100.00;101473.09;4927574;29;20060;-85
2022/12/26 10:32:41;;;;;;;77.25;41.13;;;;;;;11.43;100.00;101471.25;4945327;29;20040;-86
2022/12/26 10:35:30;;;;;;;73.55;40.05;;;;;;;11.48;100.00;101476.97;4944336;29;20036;-83
2022/12/26 10:38:08;;;;;;;79.53;39.88;;;;;;;11.54;100.00;101468.41;4943396;29;20039;-86
2022/12/26 10:40:42;;;;;;;75.68;40.28;;;;;;;11.64;100.00;101461.25;4944447;29;20047;-85
2022/12/26 10:43:19;;;;;;;69.25;38.17;;;;;;;11.73;100.00;101462.25;4944580;29;20058;-85
2022/12/26 10:45:52;;;;;;;68.47;37.22;;;;;;;11.82;100.00;101467.50;4945330;29;20056;-85
2022/12/26 10:48:22;;;;;;;71.97;37.53;;;;;;;11.82;100.00;101459.53;4941779;29;20072;-84
2022/12/26 10:50:48;;;;;;;64.03;35.90;;;;;;;11.84;100.00;101457.56;4961882;28;20093;-83
2022/12/26 10:53:15;;;;;;;62.90;33.67;;;;;;;11.86;100.00;101463.53;4992154;28;20053;-86
2022/12/26 10:55:41;;;;;;;62.75;34.30;;;;;;;11.98;100.00;101464.19;5040798;28;20033;-83
2022/12/26 10:58:27;;;;;;;60.90;33.63;;;;;;;11.83;100.00;101469.16;5042812;28;20175;-85
2022/12/26 11:00:53;;;;;;;65.10;34.80;;;;;;;11.87;100.00;101453.75;5041918;28;20068;-85
2022/12/26 11:03:20;;;;;;;66.50;35.08;;;;;;;11.99;100.00;101457.06;5040169;28;20029;-85
2022/12/26 11:05:45;;;;;;;59.78;33.72;;;;;;;12.07;100.00;101471.28;5038490;28;20045;-85
2022/12/26 11:08:49;;;;;;;53.80;31.10;;;;;;;11.99;100.00;101462.38;5020095;28;20067;-83
2022/12/26 11:11:44;;;;;;;54.72;30.55;;;;;;;12.00;100.00;101462.22;5018172;28;20386;-84
2022/12/26 11:14:27;;;;;;;58.22;32.55;;;;;;;11.98;100.00;101460.69;5017368;28;20030;-85
2022/12/26 11:16:52;;;;;;;;;;;;;;;11.95;100.00;101456.53;5018287;28;20046;-84
2022/12/26 11:19:30;;;;;;;55.15;31.10;;;;;;;11.88;100.00;101455.44;5019878;28;20004;-83
2022/12/26 11:22:21;;;;;;;56.25;31.17;;;;;;;11.99;100.00;101446.44;5017458;28;20121;-84
2022/12/26 11:25:09;;;;;;;59.72;33.10;;;;;;;12.10;100.00;101443.56;5018614;28;20030;-84
2022/12/26 11:27:56;;;;;;;58.40;31.60;;;;;;;11.95;100.00;101439.75;4999566;28;20118;-84
2022/12/26 11:30:40;;;;;;;54.97;29.80;;;;;;;11.75;100.00;101445.16;5020253;28;20037;-84
2022/12/26 11:33:22;;;;;;;55.22;30.98;;;;;;;11.82;100.00;101430.31;5019227;28;20042;-83
2022/12/26 11:36:05;;;;;;;57.13;30.67;;;;;;;11.90;100.00;101427.75;5005945;28;20041;-85
2022/12/26 11:38:34;;;;;;;55.53;29.75;;;;;;;11.98;100.00;101426.16;5027441;28;20376;-82
2022/12/26 11:43:56;;;;;;;51.65;29.55;;;;;;;12.41;100.00;101431.59;5024391;28;20413;-84
2022/12/26 11:46:32;;;;;;;52.78;29.17;;;;;;;12.32;100.00;101432.53;5016511;28;20040;-84
2022/12/26 11:48:58;;;;;;;54.15;30.67;;;;;;;12.18;100.00;101425.06;5023149;28;20040;-83
2022/12/26 11:51:41;;;;;;;56.97;30.52;;;;;;;12.13;100.00;101427.34;5016654;28;20026;-82
2022/12/26 11:54:20;;;;;;;49.42;28.88;;;;;;;12.26;100.00;101430.47;5036724;28;20030;-82
2022/12/26 11:56:46;;;;;;;56.15;31.17;;;;;;;12.12;100.00;101430.97;5019308;28;20125;-80
2022/12/26 11:59:22;;;;;;;53.42;30.05;;;;;;;12.16;100.00;101432.38;5038132;28;20108;-83
2022/12/26 12:02:22;;;;;;;51.20;29.10;;;;;;;12.17;100.00;101434.00;5021930;28;20060;-83
2022/12/26 12:04:55;;;;;;;48.92;28.23;;;;;;;12.13;100.00;101433.47;5037777;28;20075;-83
2022/12/26 12:07:58;;;;;;;46.67;27.13;;;;;;;11.99;100.00;101423.38;5037190;28;20155;-84
2022/12/26 12:10:41;;;;;;;48.33;26.25;;;;;;;12.00;100.00;101426.88;5014846;28;20097;-83
2022/12/26 12:13:31;;;;;;;54.85;27.45;;;;;;;12.01;100.00;101424.06;5037274;28;20037;-84
2022/12/26 12:16:34;;;;;;;45.95;26.27;;;;;;;11.99;100.00;101425.19;5044982;28;20113;-83
2022/12/26 12:19:18;;;;;;;64.20;36.97;;;;;;;12.05;100.00;101429.91;5049205;28;20120;-82
2022/12/26 12:21:55;;;;;;;49.28;27.27;;;;;;;12.23;100.00;101433.44;5029835;28;20065;-81
2022/12/26 12:24:26;;;;;;;42.55;25.02;;;;;;;12.34;100.00;101435.84;5045187;28;20036;-82
2022/12/26 12:27:09;;;;;;;45.53;25.23;;;;;;;12.30;100.00;101423.84;5046102;28;20445;-82
2022/12/26 12:29:34;;;;;;;40.60;24.70;;;;;;;12.23;100.00;101422.81;5041862;28;20033;-82
2022/12/26 12:32:12;;;;;;;41.47;24.45;;;;;;;12.06;100.00;101426.28;5047308;28;20066;-82
2022/12/26 12:35:00;;;;;;;41.60;25.05;;;;;;;11.97;100.00;101427.97;5047131;28;20052;-82
2022/12/26 12:37:48;;;;;;;46.42;25.88;;;;;;;11.94;100.00;101412.34;5045724;28;20064;-81
2022/12/26 12:40:32;;;;;;;44.95;26.60;;;;;;;11.94;100.00;101422.97;5044222;28;20045;-81
2022/12/26 12:43:13;;;;;;;44.45;26.30;;;;;;;11.82;100.00;101417.03;5040002;28;20080;-83
2022/12/26 12:45:57;;;;;;;50.70;26.13;;;;;;;11.79;100.00;101419.16;5037033;28;20042;-81
2022/12/26 12:48:31;;;;;;;50.15;26.23;;;;;;;11.73;100.00;101414.44;5034552;28;20041;-83
2022/12/26 12:51:03;;;;;;;43.65;26.02;;;;;;;11.69;100.00;101413.88;5034042;28;20029;-85
2022/12/26 12:54:09;;;;;;;44.23;26.30;;;;;;;11.73;100.00;101419.75;5034208;28;20049;-82
2022/12/26 12:56:50;;;;;;;42.67;23.90;;;;;;;11.81;100.00;101418.03;5016360;28;20051;-82
2022/12/26 12:59:56;;;;;;;37.20;22.83;;;;;;;11.73;100.00;101417.09;5034081;28;20389;-84
2022/12/26 13:02:26;;;;;;;43.78;23.65;;;;;;;11.60;100.00;101413.91;5034526;28;20500;-82
2022/12/26 13:05:15;;;;;;;43.75;25.02;;;;;;;11.59;100.00;101413.06;5017595;28;20104;-82
2022/12/26 13:07:47;;;;;;;40.95;24.27;;;;;;;11.52;100.00;101414.63;5035426;28;20038;-84
2022/12/26 13:10:20;;;;;;;42.30;24.92;;;;;;;11.40;100.00;101413.16;5036123;28;20033;-84
2022/12/26 13:12:48;;;;;;;42.05;25.25;;;;;;;11.37;100.00;101400.16;5035512;28;20575;-80
2022/12/26 13:15:47;;;;;;;43.10;24.08;;;;;;;11.45;100.00;101397.63;5037274;28;20038;-82
2022/12/26 13:18:23;;;;;;;42.15;24.13;;;;;;;11.36;100.00;101402.00;5028199;28;20056;-82
2022/12/26 13:20:59;;;;;;;42.65;25.25;;;;;;;11.33;100.00;101396.16;5035261;28;20034;-83
2022/12/26 13:26:24;;;;;;;44.05;24.20;;;;;;;11.21;100.00;101386.66;5015631;28;20045;-83
2022/12/26 13:29:28;;;;;;;39.15;23.75;;;;;;;11.31;100.00;101392.78;4999118;28;20041;-83
2022/12/26 13:31:56;;;;;;;42.58;25.35;;;;;;;11.23;100.00;101390.03;5032279;28;20049;-82
2022/12/26 13:34:21;;;;;;;46.78;26.00;;;;;;;11.27;100.00;101386.09;5033042;28;20029;-82
2022/12/26 13:36:53;;;;;;;50.20;28.05;;;;;;;11.22;100.00;101380.38;5015864;28;20400;-83
2022/12/26 13:39:21;;;;;;;48.70;27.77;;;;;;;11.20;100.00;101385.03;5033461;28;20089;-83